createdAt,value
2019-05-02T00:01:02.277Z,7.74
2019-05-02T00:03:31.320Z,7.76
2019-05-02T00:06:02.932Z,7.76
2019-05-02T00:08:33.168Z,7.74
2019-05-02T00:11:00.778Z,7.67
2019-05-02T00:13:29.253Z,7.67
2019-05-02T00:15:58.249Z,7.71
2019-05-02T00:18:26.660Z,7.70
2019-05-02T00:20:57.088Z,7.70
2019-05-02T00:23:27.937Z,7.69
2019-05-02T00:25:55.821Z,7.71
2019-05-02T00:28:24.250Z,7.67
2019-05-02T00:30:52.656Z,7.71
2019-05-02T00:33:21.093Z,7.71
2019-05-02T00:35:49.571Z,7.72
2019-05-02T00:38:18.072Z,7.68
2019-05-02T00:40:46.635Z,7.71
2019-05-02T00:43:15.076Z,7.71
2019-05-02T00:45:43.554Z,7.63
2019-05-02T00:48:13.619Z,7.63
2019-05-02T00:50:45.299Z,7.70
2019-05-02T00:53:13.522Z,7.72
2019-05-02T00:55:41.996Z,7.70
2019-05-02T00:58:10.426Z,7.68
2019-05-02T01:00:48.604Z,7.67
2019-05-02T01:03:17.952Z,7.66
2019-05-02T01:05:46.391Z,7.65
2019-05-02T01:08:14.822Z,7.67
2019-05-02T01:10:43.233Z,7.64
2019-05-02T01:13:14.807Z,7.64
2019-05-02T01:15:44.092Z,7.66
2019-05-02T01:18:12.005Z,7.63
2019-05-02T01:20:40.408Z,7.62
2019-05-02T01:23:08.837Z,7.62
2019-05-02T01:25:37.243Z,7.60
2019-05-02T01:28:12.459Z,7.61
2019-05-02T01:30:47.077Z,7.63
2019-05-02T01:33:17.150Z,7.65
2019-05-02T01:35:50.165Z,7.66
2019-05-02T01:38:20.236Z,7.62
2019-05-02T01:40:53.075Z,7.66
2019-05-02T01:43:24.073Z,7.65
2019-05-02T01:45:52.924Z,7.66
2019-05-02T01:48:22.070Z,7.67
2019-05-02T01:50:50.571Z,7.67
2019-05-02T01:53:19.118Z,7.67
2019-05-02T01:55:47.545Z,7.67
2019-05-02T01:58:20.902Z,7.68
2019-05-02T02:00:46.266Z,7.69
2019-05-02T02:03:14.644Z,7.68
2019-05-02T02:05:43.142Z,7.69
2019-05-02T02:08:11.613Z,7.68
2019-05-02T02:10:40.047Z,7.67
2019-05-02T02:13:08.446Z,7.67
2019-05-02T02:15:36.875Z,7.66
2019-05-02T02:18:05.650Z,7.65
2019-05-02T02:20:35.722Z,7.66
2019-05-02T02:23:22.521Z,7.66
2019-05-02T02:25:52.592Z,7.66
2019-05-02T02:28:20.989Z,7.66
2019-05-02T02:30:49.424Z,7.67
2019-05-02T02:33:17.836Z,7.67
2019-05-02T02:35:50.477Z,7.66
2019-05-02T02:38:16.399Z,7.66
2019-05-02T02:40:44.826Z,7.66
2019-05-02T02:43:32.789Z,7.67
2019-05-02T02:46:02.509Z,7.65
2019-05-02T02:48:33.789Z,7.66
2019-05-02T02:51:01.802Z,7.67
2019-05-02T02:53:30.339Z,7.68
2019-05-02T02:56:03.907Z,7.70
2019-05-02T02:58:44.572Z,7.70
2019-05-02T03:01:03.174Z,7.70
2019-05-02T03:03:35.168Z,7.70
2019-05-02T03:06:05.887Z,7.69
2019-05-02T03:08:31.982Z,7.68
2019-05-02T03:11:01.006Z,7.70
2019-05-02T03:13:31.140Z,7.69
2019-05-02T03:16:07.098Z,7.69
2019-05-02T03:18:40.474Z,7.70
2019-05-02T03:21:04.050Z,7.70
2019-05-02T03:23:32.524Z,7.70
2019-05-02T03:26:01.021Z,7.70
2019-05-02T03:28:29.491Z,7.70
2019-05-02T03:30:57.992Z,7.71
2019-05-02T03:33:26.409Z,7.69
2019-05-02T03:35:54.837Z,7.69
2019-05-02T03:38:31.545Z,7.70
2019-05-02T03:40:53.647Z,7.71
2019-05-02T03:43:25.679Z,7.72
2019-05-02T03:45:52.278Z,7.74
2019-05-02T03:48:25.946Z,7.76
2019-05-02T03:50:51.048Z,7.79
2019-05-02T03:53:25.006Z,7.80
2019-05-02T03:55:50.323Z,7.81
2019-05-02T03:58:18.760Z,7.82
2019-05-02T04:00:47.166Z,7.84
2019-05-02T04:03:15.676Z,7.84
2019-05-02T04:05:44.453Z,7.85
2019-05-02T04:08:19.855Z,7.85
2019-05-02T04:10:46.282Z,7.88
2019-05-02T04:13:15.274Z,7.88
2019-05-02T04:15:44.321Z,7.88
2019-05-02T04:18:15.238Z,7.87
2019-05-02T04:20:49.635Z,7.89
2019-05-02T04:23:14.220Z,7.88
2019-05-02T04:25:42.690Z,7.89
2019-05-02T04:28:11.917Z,7.91
2019-05-02T04:30:45.158Z,7.93
2019-05-02T04:33:11.415Z,7.93
2019-05-02T04:35:39.825Z,7.95
2019-05-02T04:38:19.116Z,7.97
2019-05-02T04:40:41.780Z,7.99
2019-05-02T04:43:11.469Z,8.03
2019-05-02T04:45:53.109Z,8.05
2019-05-02T04:48:08.849Z,8.08
2019-05-02T04:50:37.891Z,8.09
2019-05-02T04:53:08.672Z,8.12
2019-05-02T04:55:38.083Z,8.16
2019-05-02T04:58:08.360Z,8.16
2019-05-02T05:00:39.184Z,8.14
2019-05-02T05:03:15.426Z,8.17
2019-05-02T05:05:40.371Z,8.20
2019-05-02T05:08:08.359Z,8.20
2019-05-02T05:10:41.479Z,8.21
2019-05-02T05:13:07.739Z,8.22
2019-05-02T05:15:44.573Z,8.24
2019-05-02T05:18:10.413Z,8.26
2019-05-02T05:20:38.557Z,8.27
2019-05-02T05:23:08.258Z,8.29
2019-05-02T05:25:38.514Z,8.32
2019-05-02T05:28:09.094Z,8.34
2019-05-02T05:30:44.934Z,8.37
2019-05-02T05:33:10.065Z,8.38
2019-05-02T05:35:38.553Z,8.41
2019-05-02T05:38:07.714Z,8.44
2019-05-02T05:40:37.632Z,8.49
2019-05-02T05:43:13.553Z,8.52
2019-05-02T05:45:50.294Z,8.56
2019-05-02T05:48:08.255Z,8.59
2019-05-02T05:50:39.790Z,8.64
2019-05-02T05:53:07.970Z,8.67
2019-05-02T05:55:38.312Z,8.70
2019-05-02T05:58:14.609Z,8.75
2019-05-02T06:00:38.039Z,8.77
2019-05-02T06:03:11.519Z,8.80
2019-05-02T06:05:40.455Z,8.83
2019-05-02T06:08:08.176Z,8.85
2019-05-02T06:10:39.078Z,8.86
2019-05-02T06:13:10.992Z,8.91
2019-05-02T06:15:38.957Z,8.98
2019-05-02T06:18:07.207Z,9.05
2019-05-02T06:20:35.787Z,9.11
2019-05-02T06:23:04.252Z,9.16
2019-05-02T06:25:36.275Z,9.16
2019-05-02T06:28:05.209Z,9.21
2019-05-02T06:30:32.976Z,9.26
2019-05-02T06:33:01.386Z,9.30
2019-05-02T06:35:29.822Z,9.35
2019-05-02T06:37:58.299Z,9.41
2019-05-02T06:40:26.737Z,9.44
2019-05-02T06:42:55.146Z,9.48
2019-05-02T06:45:23.648Z,9.57
2019-05-02T06:47:52.069Z,9.61
2019-05-02T06:50:20.561Z,9.59
2019-05-02T06:52:48.977Z,9.62
2019-05-02T06:55:17.487Z,9.63
2019-05-02T06:57:45.895Z,9.68
2019-05-02T07:00:14.766Z,9.67
2019-05-02T07:02:43.171Z,9.71
2019-05-02T07:05:11.707Z,9.64
2019-05-02T07:07:40.124Z,9.69
2019-05-02T07:10:08.979Z,9.81
2019-05-02T07:12:37.407Z,9.97
2019-05-02T07:15:10.925Z,10.07
2019-05-02T07:17:41.013Z,10.12
2019-05-02T07:20:10.329Z,10.13
2019-05-02T07:22:40.759Z,10.15
2019-05-02T07:25:09.743Z,10.24
2019-05-02T07:27:39.339Z,10.16
2019-05-02T07:30:08.670Z,10.12
2019-05-02T07:32:37.107Z,10.16
2019-05-02T07:35:07.124Z,10.11
2019-05-02T07:37:35.562Z,10.06
2019-05-02T07:40:06.618Z,10.09
2019-05-02T07:42:36.870Z,10.06
2019-05-02T07:45:09.383Z,10.04
2019-05-02T07:47:40.461Z,10.06
2019-05-02T07:50:10.288Z,10.04
2019-05-02T07:52:41.050Z,10.08
2019-05-02T07:55:10.232Z,10.18
2019-05-02T07:57:38.790Z,10.22
2019-05-02T08:00:14.602Z,10.31
2019-05-02T08:02:43.117Z,10.42
2019-05-02T08:05:15.501Z,10.28
2019-05-02T08:07:42.165Z,10.25
2019-05-02T08:10:10.986Z,10.22
2019-05-02T08:12:39.424Z,10.27
2019-05-02T08:15:13.044Z,10.28
2019-05-02T08:17:39.038Z,10.29
2019-05-02T08:20:08.619Z,10.36
2019-05-02T08:22:37.254Z,10.48
2019-05-02T08:25:10.549Z,10.60
2019-05-02T08:27:38.707Z,10.72
2019-05-02T08:30:10.547Z,10.76
2019-05-02T08:32:38.961Z,10.84
2019-05-02T08:35:07.472Z,10.86
2019-05-02T08:37:41.077Z,10.89
2019-05-02T08:40:10.462Z,10.79
2019-05-02T08:42:39.380Z,10.85
2019-05-02T08:45:08.259Z,10.93
2019-05-02T08:47:36.670Z,11.02
2019-05-02T08:50:07.795Z,10.94
2019-05-02T08:52:36.834Z,10.94
2019-05-02T08:55:09.871Z,10.98
2019-05-02T08:57:37.788Z,10.97
2019-05-02T09:00:07.763Z,10.95
2019-05-02T09:02:41.492Z,10.85
2019-05-02T09:05:06.702Z,10.70
2019-05-02T09:07:37.255Z,10.66
2019-05-02T09:10:07.870Z,10.67
2019-05-02T09:12:36.853Z,10.73
2019-05-02T09:15:07.377Z,10.77
2019-05-02T09:17:38.708Z,10.74
2019-05-02T09:20:15.409Z,10.64
2019-05-02T09:22:37.704Z,10.63
2019-05-02T09:25:07.319Z,10.70
2019-05-02T09:27:35.732Z,10.66
2019-05-02T09:30:07.071Z,10.73
2019-05-02T09:32:37.180Z,10.85
2019-05-02T09:35:07.053Z,10.88
2019-05-02T09:37:35.453Z,10.84
2019-05-02T09:40:06.766Z,10.68
2019-05-02T09:42:35.768Z,10.66
2019-05-02T09:45:07.120Z,10.61
2019-05-02T09:47:52.850Z,10.52
2019-05-02T09:50:08.765Z,10.54
2019-05-02T09:52:39.657Z,10.55
2019-05-02T09:55:08.681Z,10.65
2019-05-02T09:57:37.338Z,10.68
2019-05-02T10:00:12.695Z,10.68
2019-05-02T10:02:41.854Z,10.74
2019-05-02T10:05:12.382Z,10.70
2019-05-02T10:07:41.920Z,10.79
2019-05-02T10:10:12.609Z,10.89
2019-05-02T10:12:42.686Z,10.92
2019-05-02T10:15:13.043Z,10.96
2019-05-02T10:17:42.953Z,10.96
2019-05-02T10:20:12.511Z,11.02
2019-05-02T10:22:41.848Z,11.08
2019-05-02T10:25:11.810Z,11.12
2019-05-02T10:27:43.900Z,11.07
2019-05-02T10:30:15.673Z,11.06
2019-05-02T10:32:42.812Z,11.08
2019-05-02T10:35:13.192Z,10.92
2019-05-02T10:37:43.067Z,10.64
2019-05-02T10:40:13.463Z,10.59
2019-05-02T10:42:42.062Z,10.74
2019-05-02T10:45:13.063Z,10.72
2019-05-02T10:47:42.288Z,10.68
2019-05-02T10:50:15.155Z,10.68
2019-05-02T10:52:43.591Z,10.77
2019-05-02T10:55:12.877Z,10.79
2019-05-02T10:57:42.107Z,10.65
2019-05-02T11:00:18.699Z,10.62
2019-05-02T11:02:52.446Z,10.62
2019-05-02T11:05:26.433Z,10.59
2019-05-02T11:07:56.967Z,10.62
2019-05-02T11:10:22.980Z,10.66
2019-05-02T11:13:07.788Z,10.75
2019-05-02T11:15:43.614Z,10.79
2019-05-02T11:18:12.736Z,10.82
2019-05-02T11:20:42.081Z,10.88
2019-05-02T11:23:12.537Z,10.96
2019-05-02T11:25:42.150Z,10.96
2019-05-02T11:28:12.457Z,11.11
2019-05-02T11:30:41.951Z,11.31
2019-05-02T11:33:13.177Z,11.30
2019-05-02T11:35:41.647Z,11.32
2019-05-02T11:38:13.281Z,11.22
2019-05-02T11:40:42.523Z,11.10
2019-05-02T11:43:11.596Z,11.14
2019-05-02T11:45:40.111Z,11.30
2019-05-02T11:48:10.942Z,11.47
2019-05-02T11:50:38.720Z,11.47
2019-05-02T11:53:09.141Z,11.64
2019-05-02T11:55:37.360Z,12.11
2019-05-02T11:58:08.081Z,12.15
2019-05-02T12:00:39.732Z,12.01
2019-05-02T12:03:23.761Z,11.81
2019-05-02T12:05:52.534Z,11.75
2019-05-02T12:08:22.605Z,11.90
2019-05-02T12:10:51.936Z,11.87
2019-05-02T12:13:22.532Z,12.10
2019-05-02T12:15:51.905Z,12.26
2019-05-02T12:18:23.059Z,12.32
2019-05-02T12:20:51.986Z,12.46
2019-05-02T12:23:22.584Z,12.57
2019-05-02T12:25:52.000Z,12.44
2019-05-02T12:28:22.770Z,12.31
2019-05-02T12:30:51.936Z,12.24
2019-05-02T12:33:22.358Z,12.28
2019-05-02T12:35:52.534Z,12.27
2019-05-02T12:38:22.896Z,12.49
2019-05-02T12:40:52.029Z,12.62
2019-05-02T12:43:22.761Z,12.77
2019-05-02T12:45:52.244Z,13.12
2019-05-02T12:48:22.011Z,13.33
2019-05-02T12:50:52.725Z,13.40
2019-05-02T12:53:21.969Z,13.44
2019-05-02T12:55:52.546Z,13.52
2019-05-02T12:58:21.905Z,13.40
2019-05-02T13:00:52.865Z,13.59
2019-05-02T13:03:37.312Z,13.46
2019-05-02T13:06:06.135Z,13.25
2019-05-02T13:08:36.822Z,13.10
2019-05-02T13:11:07.098Z,13.26
2019-05-02T13:13:35.629Z,13.40
2019-05-02T13:16:04.305Z,13.46
2019-05-02T13:18:37.078Z,13.57
2019-05-02T13:21:08.083Z,13.51
2019-05-02T13:23:37.302Z,13.55
2019-05-02T13:26:18.199Z,13.59
2019-05-02T13:28:36.154Z,13.97
2019-05-02T13:31:06.583Z,14.19
2019-05-02T13:33:36.663Z,14.61
2019-05-02T13:36:05.243Z,15.10
2019-05-02T13:38:33.743Z,15.41
2019-05-02T13:41:02.664Z,15.69
2019-05-02T13:43:35.654Z,15.59
2019-05-02T13:46:08.376Z,15.25
2019-05-02T13:48:36.813Z,15.07
2019-05-02T13:51:06.059Z,14.99
2019-05-02T13:53:36.034Z,14.74
2019-05-02T13:56:12.961Z,14.71
2019-05-02T13:58:42.465Z,14.65
2019-05-02T14:01:11.747Z,14.94
2019-05-02T14:03:42.092Z,15.38
2019-05-02T14:06:12.380Z,15.34
2019-05-02T14:08:43.072Z,15.21
2019-05-02T14:11:13.117Z,15.22
2019-05-02T14:13:42.551Z,15.45
2019-05-02T14:16:12.172Z,15.04
2019-05-02T14:18:42.108Z,14.53
2019-05-02T14:21:12.545Z,14.18
2019-05-02T14:23:42.004Z,13.85
2019-05-02T14:26:11.729Z,13.70
2019-05-02T14:28:40.310Z,13.45
2019-05-02T14:31:08.730Z,13.38
2019-05-02T14:33:38.880Z,13.32
2019-05-02T14:36:07.288Z,13.28
2019-05-02T14:38:35.734Z,13.22
2019-05-02T14:41:12.455Z,13.22
2019-05-02T14:43:53.205Z,13.17
2019-05-02T14:46:22.388Z,13.32
2019-05-02T14:48:52.259Z,13.41
2019-05-02T14:51:22.882Z,13.47
2019-05-02T14:53:52.614Z,13.47
2019-05-02T14:56:45.212Z,13.46
2019-05-02T14:59:15.160Z,13.63
2019-05-02T15:01:43.539Z,13.75
2019-05-02T15:04:12.973Z,13.84
2019-05-02T15:06:45.450Z,14.01
2019-05-02T15:09:12.129Z,14.06
2019-05-02T15:11:46.047Z,14.39
2019-05-02T15:14:18.051Z,14.74
2019-05-02T15:16:45.356Z,14.91
2019-05-02T15:19:13.937Z,14.52
2019-05-02T15:21:46.990Z,14.22
2019-05-02T15:24:12.571Z,14.06
2019-05-02T15:26:41.832Z,13.81
2019-05-02T15:29:12.057Z,13.93
2019-05-02T15:31:42.182Z,14.02
2019-05-02T15:34:17.968Z,14.09
2019-05-02T15:36:46.404Z,14.12
2019-05-02T15:41:48.468Z,13.83
2019-05-02T15:44:18.930Z,13.77
2019-05-02T15:46:45.314Z,13.69
2019-05-02T15:49:13.714Z,13.72
2019-05-02T15:51:43.655Z,13.77
2019-05-02T15:54:12.567Z,13.83
2019-05-02T15:57:00.680Z,13.75
2019-05-02T15:59:41.902Z,13.62
2019-05-02T16:02:06.935Z,13.51
2019-05-02T16:04:37.115Z,13.36
2019-05-02T16:07:08.353Z,13.32
2019-05-02T16:09:36.215Z,13.29
2019-05-02T16:12:05.487Z,13.32
2019-05-02T16:14:35.965Z,13.25
2019-05-02T16:17:04.123Z,13.17
2019-05-02T16:19:34.241Z,13.06
2019-05-02T16:22:13.106Z,12.89
2019-05-02T16:24:43.833Z,12.76
2019-05-02T16:27:11.843Z,12.67
2019-05-02T16:29:41.800Z,12.63
2019-05-02T16:32:18.030Z,12.64
2019-05-02T16:35:00.294Z,12.55
2019-05-02T16:37:28.727Z,12.42
2019-05-02T16:39:57.208Z,12.30
2019-05-02T16:42:25.648Z,12.36
2019-05-02T16:44:54.810Z,12.43
2019-05-02T16:47:23.583Z,12.44
2019-05-02T16:49:56.140Z,12.36
2019-05-02T16:52:22.340Z,12.30
2019-05-02T16:54:52.618Z,12.25
2019-05-02T16:57:22.213Z,12.15
2019-05-02T16:59:53.903Z,12.06
2019-05-02T17:02:21.903Z,11.97
2019-05-02T17:04:52.021Z,11.91
2019-05-02T17:07:22.187Z,11.85
2019-05-02T17:09:52.311Z,11.83
2019-05-02T17:12:20.717Z,11.75
2019-05-02T17:15:07.818Z,11.71
2019-05-02T17:17:36.384Z,11.68
2019-05-02T17:20:07.286Z,11.62
2019-05-02T17:22:36.855Z,11.53
2019-05-02T17:25:06.938Z,11.47
2019-05-02T17:27:35.419Z,11.40
2019-05-02T17:30:05.981Z,10.93
2019-05-02T17:32:37.653Z,10.32
2019-05-02T17:35:09.935Z,10.06
2019-05-02T17:37:40.650Z,10.00
2019-05-02T17:40:06.685Z,9.97
2019-05-02T17:42:35.147Z,9.89
2019-05-02T17:45:04.912Z,9.87
2019-05-02T17:47:36.121Z,9.86
2019-05-02T17:50:15.626Z,9.90
2019-05-02T17:52:42.716Z,9.86
2019-05-02T17:55:12.109Z,9.70
2019-05-02T17:57:42.009Z,9.53
2019-05-02T18:00:16.652Z,9.35
2019-05-02T18:02:46.972Z,9.27
2019-05-02T18:05:13.114Z,9.20
2019-05-02T18:07:41.824Z,9.18
2019-05-02T18:10:17.316Z,9.09
2019-05-02T18:12:40.511Z,9.09
2019-05-02T18:15:09.287Z,8.99
2019-05-02T18:17:37.708Z,8.92
2019-05-02T18:20:07.729Z,8.85
2019-05-02T18:22:39.970Z,8.79
2019-05-02T18:25:06.660Z,8.72
2019-05-02T18:27:35.130Z,8.71
2019-05-02T18:30:04.731Z,8.67
2019-05-02T18:32:33.130Z,8.63
2019-05-02T18:35:04.949Z,8.63
2019-05-02T18:37:32.615Z,8.65
2019-05-02T18:40:03.065Z,8.68
2019-05-02T18:42:31.771Z,8.69
2019-05-02T18:45:01.764Z,8.66
2019-05-02T18:47:30.270Z,8.63
2019-05-02T18:50:04.387Z,8.62
2019-05-02T18:52:36.307Z,8.61
2019-05-02T18:54:58.952Z,8.58
2019-05-02T18:57:29.520Z,8.53
2019-05-02T18:59:58.220Z,8.51
2019-05-02T19:02:32.723Z,8.51
2019-05-02T19:04:56.927Z,8.48
2019-05-02T19:07:33.235Z,8.46
2019-05-02T19:09:58.842Z,8.43
2019-05-02T19:12:26.136Z,8.42
2019-05-02T19:14:57.453Z,8.38
2019-05-02T19:17:24.797Z,8.39
2019-05-02T19:19:53.273Z,8.34
2019-05-02T19:22:22.450Z,8.33
2019-05-02T19:24:52.358Z,8.31
2019-05-02T19:27:28.115Z,8.29
2019-05-02T19:29:56.584Z,8.28
2019-05-02T19:32:28.307Z,8.28
2019-05-02T19:34:57.741Z,8.28
2019-05-02T19:37:25.448Z,8.29
2019-05-02T19:39:56.697Z,8.27
2019-05-02T19:42:26.187Z,8.27
2019-05-02T19:44:54.407Z,8.25
2019-05-02T19:47:22.928Z,8.25
2019-05-02T19:49:52.478Z,8.22
2019-05-02T19:52:22.204Z,8.23
2019-05-02T19:54:51.892Z,8.27
2019-05-02T19:57:24.772Z,8.24
2019-05-02T19:59:52.415Z,8.22
2019-05-02T20:02:22.290Z,8.22
2019-05-02T20:04:51.988Z,8.21
2019-05-02T20:07:21.670Z,8.22
2019-05-02T20:09:50.179Z,8.20
2019-05-02T20:12:18.611Z,8.24
2019-05-02T20:14:47.644Z,8.22
2019-05-02T20:17:20.332Z,8.20
2019-05-02T20:19:47.995Z,8.18
2019-05-02T20:22:16.737Z,8.14
2019-05-02T20:24:55.256Z,8.12
2019-05-02T20:27:22.992Z,8.14
2019-05-02T20:29:52.170Z,8.08
2019-05-02T20:32:22.121Z,8.09
2019-05-02T20:34:50.732Z,8.08
2019-05-02T20:37:19.205Z,8.10
2019-05-02T20:39:47.635Z,8.09
2019-05-02T20:42:16.036Z,8.03
2019-05-02T20:44:44.469Z,7.98
2019-05-02T20:47:16.311Z,7.98
2019-05-02T20:49:44.808Z,7.97
2019-05-02T20:52:13.278Z,7.98
2019-05-02T20:54:42.802Z,7.93
2019-05-02T20:57:11.948Z,7.92
2019-05-02T20:59:41.756Z,7.93
2019-05-02T21:02:12.195Z,7.92
2019-05-02T21:04:42.323Z,7.90
2019-05-02T21:07:24.593Z,7.92
2019-05-02T21:09:54.733Z,7.92
2019-05-02T21:12:23.271Z,7.86
2019-05-02T21:14:52.318Z,7.78
2019-05-02T21:17:22.115Z,7.70
2019-05-02T21:19:50.641Z,7.65
2019-05-02T21:22:22.229Z,7.68
2019-05-02T21:24:52.688Z,7.74
2019-05-02T21:27:21.810Z,7.72
2019-05-02T21:29:52.207Z,7.60
2019-05-02T21:32:22.732Z,7.55
2019-05-02T21:34:52.010Z,7.34
2019-05-02T21:37:22.471Z,7.34
2019-05-02T21:39:52.039Z,7.25
2019-05-02T21:42:22.427Z,7.24
2019-05-02T21:44:51.815Z,7.15
2019-05-02T21:47:22.306Z,7.17
2019-05-02T21:49:58.053Z,7.21
2019-05-02T21:52:39.856Z,7.21
2019-05-02T21:55:12.959Z,7.19
2019-05-02T21:57:41.357Z,7.19
2019-05-02T22:00:12.568Z,7.16
2019-05-02T22:02:40.968Z,7.22
2019-05-02T22:05:09.670Z,7.14
2019-05-02T22:07:38.071Z,7.10
2019-05-02T22:10:08.445Z,7.01
2019-05-02T22:12:36.920Z,6.99
2019-05-02T22:15:05.722Z,6.93
2019-05-02T22:17:34.128Z,6.93
2019-05-02T22:20:02.564Z,6.93
2019-05-02T22:22:31.740Z,6.93
2019-05-02T22:25:02.272Z,6.88
2019-05-02T22:27:32.491Z,6.88
2019-05-02T22:30:02.139Z,6.79
2019-05-02T22:32:32.107Z,6.70
2019-05-02T22:35:01.872Z,6.64
2019-05-02T22:37:32.610Z,6.67
2019-05-02T22:40:03.985Z,6.58
2019-05-02T22:42:32.667Z,6.58
2019-05-02T22:45:01.616Z,6.50
2019-05-02T22:47:32.128Z,6.49
2019-05-02T22:50:00.607Z,6.35
2019-05-02T22:52:29.036Z,6.35
2019-05-02T22:54:57.439Z,6.27
2019-05-02T22:57:25.877Z,6.21
2019-05-02T22:59:54.359Z,6.09
2019-05-02T23:02:22.788Z,6.09
2019-05-02T23:04:52.701Z,5.98
2019-05-02T23:07:22.290Z,5.78
2019-05-02T23:09:52.715Z,5.61
2019-05-02T23:12:22.532Z,5.61
2019-05-02T23:14:52.290Z,5.50
2019-05-02T23:17:23.013Z,5.36
2019-05-02T23:19:52.748Z,5.36
2019-05-02T23:22:21.816Z,5.39
2019-05-02T23:25:07.829Z,5.39
2019-05-02T23:27:43.588Z,5.33
2019-05-02T23:30:15.466Z,5.27
2019-05-02T23:32:43.898Z,5.20
2019-05-02T23:35:12.309Z,5.15
2019-05-02T23:37:42.256Z,5.10
2019-05-02T23:40:12.455Z,5.15
2019-05-02T23:42:41.709Z,5.15
2019-05-02T23:45:12.128Z,5.11
2019-05-02T23:47:42.170Z,5.02
2019-05-02T23:50:12.141Z,4.92
2019-05-02T23:52:40.724Z,4.91
2019-05-02T23:55:09.204Z,4.86
2019-05-02T23:57:37.640Z,4.86
